ULLI/LED METAR and TAF weather

Enter ICAO airport designator
Station Type Date Time Source
ULLI METAR 2019/05/19 06:00 UTC NOAA

ULLI 190600Z VRB01MPS CAVOK 20/07 Q1020 R88/090060 NOSIG


Station Type Date Time Source
ULLI Decoded METAR 2019/05/19 06:00 UTC NOAA

St. Peterburg, Russia (ULLI) 59-58N 030-18E 6M
May 19, 2019 - 02:00 AM EDT / 2019.05.19 0600 UTC
Wind: Variable at 2 MPH (2 KT):0
Visibility: greater than 7 mile(s):0
Temperature: 68 F (20 C)
Dew Point: 44 F (7 C)
Relative Humidity: 42%
Pressure (altimeter): 30.12 in. Hg (1020 hPa)
ob: ULLI 190600Z VRB01MPS CAVOK 20/07 Q1020 R88/090060 NOSIG
cycle: 6

Station Type Date Time Source
ULLI TAF 2019/05/19 06:21 UTC NOAA

TAF TAF ULLI 190457Z 1906/2006 11003G08MPS CAVOK
TEMPO 1908/1918 BKN025
TEMPO 1921/2004 3100 MIFG BR SCT011

Example: see airport list